Airfield :







YOU CAN JOIN US ON...

 
LOGIN :

Register | Disclaimer

   EN    FR    IT 

 









Legend :    VFR   Marginal VFR   IFR   Intensive IFR   Very Intensive IFR
Visi :
Ceiling :
>= 8 km
>= 3000ft
5 to 8 km
1000 to 3000 ft
1500m to 5 km
500 to 1000 ft
800 to 1500m
200 to 500 ft
< 800m
< 200 ft
Symbols :   Thunderstorms  Fog  Heavy snow  Heavy precipitations  Wind > 20 kt






- Airport Elevation : 141 ft
- IATA code : YQI


CYQI - Yarmouth

CURRENT METAR :
  • 281200Z 34016G21KT 15SM FEW030 04/M02 A3008 RMK SC1 SC TR SLP188

EXPIRED METARs :
  • 281100Z 33014KT 15SM SKC 03/M02 A3007 RMK SLP185
  • 281000Z 33013G19KT 15SM SKC 02/M02 A3004 RMK SLP176

TAF TAF CYQI
Valid from the 28 at 12:00 until the 29 at 00:00 UTC


281138Z 2812/2824 33010G20KT P6SM SKC
BECMG 2820/2822 29008KT
BECMG 2822/2824 VRB03KT RMK NXT FCST BY 281800Z



MET'MAP, your aeronautical weather chart ! - Copyright ORBIFLY December 2007 - Disclaimer

ORBIFLY MET'MAP TEAM :

Programming & Development : Alexandra Zaïnal
Concept & original design : Baudouin d'Aumeries
Assistance for programming : Marc-Olivier Méhu
Technical & hardware support : Manuel Goepfert

Contact : metmap@orbifly.com




SOURCES & CREDITS :

   NOAA